Latest Weather Observations for Kuitpo

IDS60801

Issued at 10:31 pm CDT Tuesday 6 December 2016 (issued every 30 minutes, with the page automatically refreshed every 10 minutes)

About weather observations | Map of weather stations | Latest weather observations for SA | Other Formats
Station Details ID: 023887 Name: KUITPO FOREST RESERVE Lat: -35.17 Lon: 138.68 Height: 365.0 m
Data from the previous 72 hours. | See also: Recent months at Kuitpo
Date/Time
CDT
Temp
°C
App
Temp
°C
Dew
Point
°C
Rel
Hum
%
Delta-T
°C
Wind Press
QNH
hPa
Press
MSL
hPa
Rain since
9am
mm
Dir  Spd
km/h
Gust
km/h
Spd
kts
Gust
kts
06/10:30pm 11.2 7.9 8.2 82 1.5 ESE 15 19 8 10 1015.3 1014.3 0.0
06/10:00pm 11.3 8.0 8.2 81 1.5 ESE 15 19 8 10 1015.5 1014.5 0.0
06/09:30pm 11.7 8.8 8.2 79 1.8 SE 13 19 7 10 1015.6 1014.6 0.0
06/09:00pm 12.3 9.4 8.2 76 2.1 SE 13 17 7 9 1015.7 1014.7 0.0
06/08:30pm 13.0 10.5 8.1 72 2.5 SE 11 17 6 9 1015.3 1014.3 0.0
06/08:00pm 14.2 11.7 8.2 67 3.1 SE 11 20 6 11 1015.2 1014.2 0.0
06/07:30pm 16.0 14.1 9.0 63 3.7 ESE 9 15 5 8 1014.8 1013.7 0.0
06/07:00pm 18.0 16.1 10.6 62 4.0 WSW 11 15 6 8 1014.9 1013.8 0.0
06/06:30pm 18.4 16.9 10.5 60 4.3 SW 9 17 5 9 1014.7 1013.6 0.0
06/06:00pm 18.7 16.5 10.8 60 4.3 WSW 13 20 7 11 1014.4 1013.3 0.0
06/05:30pm 19.0 16.8 10.8 59 4.5 WSW 13 19 7 10 1014.4 1013.3 0.0
06/05:00pm 19.3 16.7 10.8 58 4.7 WSW 15 22 8 12 1014.2 1013.1 0.0
06/04:30pm 19.5 17.5 11.5 60 4.5 WSW 13 22 7 12 1014.3 1013.2 0.0
06/04:00pm 19.4 16.9 11.2 59 4.6 W 15 24 8 13 1014.4 1013.3 0.0
06/03:30pm 19.5 16.7 11.3 59 4.6 WSW 17 26 9 14 1014.7 1013.6 0.0
06/03:00pm 20.4 18.8 11.6 57 5.0 W 11 20 6 11 1014.9 1013.8 0.0
06/02:30pm 19.3 17.1 10.8 58 4.7 WNW 13 20 7 11 1014.6 1013.5 0.0
06/02:00pm 18.9 17.1 10.7 59 4.5 WSW 11 17 6 9 1014.8 1013.7 0.0
06/01:30pm 18.2 16.9 10.1 59 4.4 W 7 19 4 10 1014.9 1013.8 0.0
06/01:00pm 17.4 15.5 10.5 64 3.8 W 11 17 6 9 1015.0 1014.0 0.0
06/12:30pm 17.1 14.9 9.5 61 4.0 WSW 11 17 6 9 1015.0 1014.0 0.0
06/12:00pm 17.3 14.9 10.0 62 3.9 WSW 13 20 7 11 1015.1 1014.1 0.0
06/11:30am 17.3 14.8 8.4 56 4.6 W 11 17 6 9 1015.3 1014.3 0.0
06/11:00am 16.7 14.4 7.4 54 4.7 WNW 9 15 5 8 1015.5 1014.5 0.0
06/10:30am 17.1 15.1 8.8 58 4.4 W 9 13 5 7 1015.4 1014.4 0.0
06/10:00am 16.0 13.9 8.2 60 4.0 SSW 9 15 5 8 1015.5 1014.5 0.0
06/09:30am 15.6 13.8 9.3 66 3.3 ESE 9 15 5 8 1015.5 1014.5 0.0
06/09:00am 14.7 12.6 9.7 72 2.6 ESE 11 15 6 8 1015.2 1014.2 0.0
06/08:30am 13.7 11.9 9.6 76 2.1 ESE 9 15 5 8 1015.2 1014.2 0.0
06/08:00am 12.2 10.0 9.4 83 1.4 ESE 11 15 6 8 1015.0 1014.0 0.0
06/07:30am 10.7 8.8 9.1 90 0.8 ESE 9 13 5 7 1014.9 1013.8 0.0
06/07:00am 10.0 7.6 8.8 92 0.6 ESE 11 13 6 7 1014.6 1013.5 0.0
06/06:30am 9.8 7.4 8.6 92 0.6 SE 11 15 6 8 1014.2 1013.1 0.0
06/06:00am 9.7 7.3 8.5 92 0.6 ESE 11 15 6 8 1014.0 1012.9 0.0
06/05:30am 9.8 7.3 8.4 91 0.7 ESE 11 15 6 8 1013.4 1012.3 0.0
06/05:00am 10.0 7.2 8.6 91 0.7 ESE 13 17 7 9 1012.9 1011.9 0.0
06/04:30am 9.9 7.9 8.7 92 0.6 ESE 9 11 5 6 1012.8 1011.8 0.0
06/04:00am 10.2 8.6 8.8 91 0.7 SSE 7 11 4 6 1013.0 1012.0 0.0
06/03:30am 10.2 8.2 8.8 91 0.7 SSE 9 11 5 6 1013.2 1012.2 0.0
06/03:00am 10.2 8.3 9.0 92 0.6 SSE 9 13 5 7 1012.7 1011.7 0.0
06/02:30am 10.3 7.6 8.9 91 0.7 SE 13 17 7 9 1012.6 1011.6 0.0
06/02:00am 10.5 7.8 8.9 90 0.8 SE 13 17 7 9 1013.0 1012.0 0.0
06/01:30am 10.5 7.8 8.9 90 0.8 ESE 13 17 7 9 1013.0 1012.0 0.0
06/01:00am 10.6 7.9 9.0 90 0.8 ESE 13 17 7 9 1013.4 1012.3 0.0
06/12:30am 10.6 7.9 8.9 89 0.9 ESE 13 19 7 10 1013.0 1012.0 0.0
06/12:00am 10.8 8.4 8.7 87 1.1 SE 11 15 6 8 1013.8 1012.7 0.0
 
Date/Time
CDT
Temp
°C
App
Temp
°C
Dew
Point
°C
Rel
Hum
%
Delta-T
°C
Wind Press
QNH
hPa
Press
MSL
hPa
Rain since
9am
mm
Dir  Spd
km/h
Gust
km/h
Spd
kts
Gust
kts
05/11:30pm 11.0 7.9 8.8 86 1.1 ESE 15 19 8 10 1013.6 1012.5 0.0
05/11:00pm 11.1 8.7 8.5 84 1.3 ESE 11 15 6 8 1014.2 1013.1 0.0
05/10:30pm 11.2 8.4 8.4 83 1.4 ESE 13 17 7 9 1014.1 1013.0 0.0
05/10:00pm 11.4 8.9 8.4 82 1.5 ESE 11 15 6 8 1014.2 1013.1 0.0
05/09:30pm 11.6 8.7 8.3 80 1.7 ESE 13 20 7 11 1013.6 1012.5 0.0
05/09:00pm 11.8 8.2 8.5 80 1.7 ESE 17 24 9 13 1013.2 1012.2 0.0
05/08:30pm 11.9 7.8 8.7 81 1.6 ESE 20 32 11 17 1012.3 1011.2 0.0
05/08:00pm 12.2 7.8 9.0 81 1.6 ESE 22 32 12 17 1011.9 1010.8 0.0
05/07:30pm 12.5 9.1 9.1 80 1.7 SE 17 33 9 18 1012.1 1011.0 0.0
05/07:00pm 13.1 9.3 9.2 77 2.0 SSE 19 30 10 16 1012.9 1011.9 0.0
05/06:30pm 13.5 9.5 8.4 71 2.6 SE 19 28 10 15 1012.8 1011.8 0.0
05/06:00pm 14.2 10.4 7.7 65 3.3 SE 17 32 9 17 1013.0 1012.0 0.0
05/05:30pm 15.8 12.6 8.5 62 3.8 SE 15 26 8 14 1011.8 1010.7 0.0
05/05:00pm 16.7 13.2 8.7 59 4.2 ESE 17 26 9 14 1012.0 1010.9 0.0
05/04:30pm 17.5 14.2 8.1 54 4.9 SE 15 20 8 11 1012.6 1011.6 0.0
05/04:00pm 18.3 16.5 9.4 56 4.8 SSE 9 17 5 9 1013.1 1012.1 0.0
05/03:30pm 18.6 16.4 7.7 49 5.7 SSW 9 17 5 9 1013.0 1012.0 0.0
05/03:00pm 18.0 15.8 8.0 52 5.2 ESE 9 17 5 9 1013.0 1012.0 0.0
05/02:30pm 17.4 15.2 7.7 53 5.0 SSE 9 15 5 8 1013.5 1012.4 0.0
05/02:00pm 16.8 13.9 8.0 56 4.5 E 13 19 7 10 1013.4 1012.3 0.0
05/01:30pm 16.4 14.1 7.6 56 4.5 SE 9 19 5 10 1013.6 1012.5 0.0
05/01:00pm 16.1 13.6 8.1 59 4.1 SSE 11 15 6 8 1013.6 1012.5 0.0
05/12:30pm 16.0 13.1 8.0 59 4.1 SSE 13 22 7 12 1013.2 1012.2 0.0
05/12:00pm 17.0 14.2 8.4 57 4.5 SSE 13 28 7 15 1013.1 1012.1 0.0
05/11:30am 15.3 12.7 7.8 61 3.8 SSE 11 19 6 10 1013.4 1012.3 0.0
05/11:00am 15.9 13.0 8.2 60 4.0 SSE 13 19 7 10 1013.9 1012.8 0.0
05/10:30am 15.9 14.0 8.9 63 3.7 SSE 9 19 5 10 1013.9 1012.8 0.0
05/10:00am 15.6 13.2 8.8 64 3.5 SSE 11 20 6 11 1014.1 1013.0 0.0
05/09:30am 14.8 11.9 8.1 64 3.4 SE 13 20 7 11 1013.8 1012.7 0.0
05/09:00am 13.6 11.5 8.4 71 2.7 S 9 17 5 9 1013.1 1012.1 4.2
05/08:30am 13.0 10.5 8.3 73 2.4 SSW 11 20 6 11 1012.9 1011.9 4.2
05/08:00am 13.0 10.7 9.1 77 2.0 S 11 19 6 10 1012.9 1011.9 4.2
05/07:30am 12.5 9.9 9.3 81 1.6 SSW 13 20 7 11 1012.5 1011.4 4.2
05/07:00am 12.0 10.0 8.8 81 1.6 SSW 9 15 5 8 1012.2 1011.1 4.2
05/06:30am 11.6 9.2 8.8 83 1.4 SSW 11 17 6 9 1011.8 1010.7 4.2
05/06:00am 11.2 8.4 8.6 84 1.3 SW 13 19 7 10 1011.4 1010.3 4.2
05/05:30am 10.8 6.6 8.4 85 1.2 SW 20 32 11 17 1010.7 1009.6 4.2
05/05:00am 10.8 8.1 8.9 88 1.0 SW 13 19 7 10 1010.9 1009.8 4.2
05/04:30am 10.6 7.5 8.9 89 0.9 SW 15 24 8 13 1010.8 1009.7 4.2
05/04:00am 10.7 8.0 9.1 90 0.8 SW 13 22 7 12 1010.7 1009.6 4.2
05/03:30am 10.7 8.1 9.5 92 0.6 SW 13 17 7 9 1010.1 1009.0 4.2
05/03:00am 10.8 9.1 9.7 93 0.6 SW 9 15 5 8 1009.9 1008.8 4.2
05/02:30am 11.4 9.0 10.0 91 0.7 SSW 13 19 7 10 1009.9 1008.8 4.2
05/02:00am 11.9 10.3 10.3 90 0.8 SSW 9 13 5 7 1009.9 1008.8 4.2
05/01:30am 12.6 11.3 11.3 92 0.7 SW 9 11 5 6 1009.9 1008.8 4.2
05/01:00am 13.5 12.4 11.9 90 0.9 SSW 9 13 5 7 1009.5 1008.4 4.2
05/12:30am 14.6 14.1 13.8 95 0.5 WSW 9 17 5 9 1009.3 1008.2 4.2
05/12:00am 14.6 13.7 13.8 95 0.5 W 11 17 6 9 1008.8 1007.7 4.2
 
Date/Time
CDT
Temp
°C
App
Temp
°C
Dew
Point
°C
Rel
Hum
%
Delta-T
°C
Wind Press
QNH
hPa
Press
MSL
hPa
Rain since
9am
mm
Dir  Spd
km/h
Gust
km/h
Spd
kts
Gust
kts
04/11:30pm 15.1 14.5 14.6 97 0.3 W 11 17 6 9 1008.5 1007.4 4.2
04/11:00pm 15.6 14.0 15.1 97 0.3 WSW 17 28 9 15 1008.2 1007.1 4.2
04/10:30pm 16.2 14.7 15.4 95 0.5 WSW 17 30 9 16 1008.0 1006.9 4.2
04/10:00pm 16.5 15.0 15.2 92 0.8 WSW 17 24 9 13 1007.7 1006.5 4.2
04/09:30pm 17.1 15.2 15.1 88 1.2 W 19 30 10 16 1006.9 1005.8 4.2
04/09:00pm 17.9 16.4 15.2 84 1.6 W 17 24 9 13 1006.6 1005.5 4.2
04/08:30pm 19.0 17.1 15.3 79 2.2 WSW 19 39 10 21 1006.1 1005.0 4.2
04/08:03pm 22.0 18.1 15.6 67 3.9 W 30 57 16 31 1005.3 1004.1 4.2
04/08:00pm 23.9 21.1 16.4 63 4.7 WNW 26 48 14 26 1005.0 1003.8 4.2
04/07:30pm 25.5 23.7 16.1 56 5.9 NW 20 35 11 19 1004.2 1003.1 4.2
04/07:00pm 25.5 23.9 16.6 58 5.6 NW 20 33 11 18 1003.8 1002.7 4.2
04/06:30pm 25.6 24.0 16.5 57 5.7 NW 20 35 11 19 1003.7 1002.6 4.2
04/06:00pm 25.8 24.4 16.6 56 5.8 NW 19 32 10 17 1003.3 1002.2 4.2
04/05:30pm 25.0 23.8 17.5 63 4.8 NNW 20 33 11 18 1002.9 1001.7 4.2
04/05:00pm 24.5 23.4 17.2 63 4.6 NNW 19 30 10 16 1003.2 1002.1 4.2
04/04:30pm 24.3 23.0 16.8 63 4.7 NNW 19 35 10 19 1003.5 1002.4 4.2
04/04:00pm 24.3 24.0 17.3 65 4.4 N 15 24 8 13 1003.8 1002.7 4.2
04/03:30pm 24.1 23.6 17.8 68 4.0 N 17 28 9 15 1003.9 1002.8 4.2
04/03:00pm 21.3 21.1 18.5 84 1.8 N 17 30 9 16 1004.4 1003.3 4.2
04/02:30pm 21.0 21.4 18.9 88 1.3 NNW 15 33 8 18 1005.6 1004.5 3.8
04/02:00pm 22.6 20.8 17.9 75 3.0 NNW 24 37 13 20 1006.0 1004.9 3.6
04/01:30pm 21.7 21.0 18.7 83 1.9 NNW 20 33 11 18 1006.4 1005.3 3.6
04/01:00pm 19.8 19.0 18.5 92 0.8 NNW 20 33 11 18 1007.4 1006.3 3.6
04/12:35pm 20.0 17.7 18.5 91 0.9 NNW 28 46 15 25 1007.9 1006.8 3.2
04/12:30pm 20.0 18.0 18.3 90 1.1 NNW 26 43 14 23 1007.8 1006.6 3.2
04/12:00pm 19.7 17.9 17.8 89 1.2 NNW 24 44 13 24 1008.1 1007.0 2.8
04/11:49am 19.7 17.1 17.7 88 1.2 NNW 28 46 15 25 1008.0 1006.9 2.8
04/11:30am 19.9 18.1 17.9 88 1.3 NNW 24 43 13 23 1008.4 1007.3 2.6
04/11:00am 19.7 18.0 18.0 90 1.1 NNW 24 39 13 21 1008.7 1007.6 2.0
04/10:30am 19.4 18.3 17.4 88 1.2 NNW 19 35 10 19 1008.8 1007.7 1.6
04/10:00am 20.5 18.7 16.9 80 2.2 NNW 22 37 12 20 1009.3 1008.2 0.0
04/09:30am 20.9 17.2 16.1 74 2.9 NNW 30 61 16 33 1009.0 1007.9 0.0
04/09:12am 23.1 18.7 13.0 53 5.9 NW 28 54 15 29 1009.0 1007.9 0.0
04/09:00am 23.7 20.3 11.1 45 7.2 NW 20 35 11 19 1009.0 1007.9 0.0
04/08:30am 23.8 20.4 10.5 43 7.5 NW 19 39 10 21 1008.4 1007.3 0.0
04/08:00am 24.7 20.4 9.4 38 8.5 NNW 22 46 12 25 1007.7 1006.5 0.0
04/07:34am 25.4 19.7 8.4 34 9.3 N 28 50 15 27 1007.3 1006.2 0.0
04/07:30am 24.9 20.8 8.8 36 8.9 N 20 46 11 25 1007.2 1006.1 0.0
04/07:29am 24.6 20.5 8.5 36 8.8 N 20 46 11 25 1007.3 1006.2 0.0
04/07:00am 19.6 15.6 8.3 48 6.0 NNE 19 28 10 15 1006.6 1005.5 0.0
04/06:30am 19.2 15.6 8.5 50 5.7 NE 17 24 9 13 1006.8 1005.7 0.0
04/06:00am 19.4 15.7 8.1 48 6.0 NE 17 24 9 13 1007.0 1005.9 0.0
04/05:30am 19.7 16.0 8.1 47 6.1 ENE 17 22 9 12 1007.0 1005.9 0.0
04/05:00am 19.4 15.8 8.4 49 5.8 NE 17 26 9 14 1007.1 1006.0 0.0
04/04:30am 18.7 14.7 8.4 51 5.4 NE 19 26 10 14 1007.0 1005.9 0.0
04/04:00am 18.4 14.4 8.4 52 5.3 NE 19 30 10 16 1007.2 1006.1 0.0
04/03:30am 17.9 13.9 8.2 53 5.1 NE 19 26 10 14 1007.6 1006.4 0.0
04/03:00am 16.8 12.9 8.8 59 4.2 NE 19 26 10 14 1008.2 1007.1 0.0
04/02:30am 16.0 12.1 8.7 62 3.8 NE 19 26 10 14 1008.3 1007.2 0.0
04/02:00am 15.8 11.9 9.5 66 3.3 NE 20 30 11 16 1008.9 1007.8 0.0
04/01:30am 15.5 13.2 10.3 71 2.8 ENE 13 26 7 14 1009.3 1008.2 0.0
04/01:00am 14.6 12.0 10.6 77 2.1 ESE 15 19 8 10 1009.4 1008.3 0.0
04/12:30am 15.5 14.0 10.7 73 2.6 ENE 9 13 5 7 1009.9 1008.8 0.0
04/12:00am 14.5 12.3 10.9 79 1.9 E 13 17 7 9 1010.0 1008.9 0.0
 
Date/Time
CDT
Temp
°C
App
Temp
°C
Dew
Point
°C
Rel
Hum
%
Delta-T
°C
Wind Press
QNH
hPa
Press
MSL
hPa
Rain since
9am
mm
Dir  Spd
km/h
Gust
km/h
Spd
kts
Gust
kts
03/11:30pm 15.1 12.6 11.1 77 2.2 SE 15 19 8 10 1010.0 1008.9 0.0
03/11:00pm 15.8 13.8 11.4 75 2.4 ESE 13 15 7 8 1010.6 1009.5 0.0

Other Formats:

Comma delimited format used in spreadsheet applications
http://www.bom.gov.au/fwo/IDS60801/IDS60801.94683.axf

JavaScript Object Notation format (JSON) in row-major order
http://www.bom.gov.au/fwo/IDS60801/IDS60801.94683.json